Time;durP1;ratioP1;P1;durP2;ratioP2;P2;SDS_P1;SDS_P2;PMS_P1;PMS_P2;Temp;Humidity;BMP_temperature;BMP_pressure;BME280_temperature;BME280_humidity;BME280_pressure;Samples;Min_cycle;Max_cycle;Signal;HPM_P1;HPM_P2
2021/07/31 00:01:49;;;;;;;3.65;3.30;;;25.80;67.10;;;;;;5029493;28;20231;-59
2021/07/31 00:04:15;;;;;;;3.97;3.30;;;25.80;67.10;;;;;;5029939;28;20289;-58
2021/07/31 00:06:42;;;;;;;3.53;3.22;;;25.80;67.10;;;;;;5029272;28;20205;-58
2021/07/31 00:09:08;;;;;;;3.60;3.30;;;25.70;67.00;;;;;;5029254;28;20305;-58
2021/07/31 00:11:35;;;;;;;3.15;2.95;;;25.70;66.90;;;;;;5030558;28;20294;-59
2021/07/31 00:14:01;;;;;;;3.70;3.40;;;25.70;67.00;;;;;;5029422;28;20289;-59
2021/07/31 00:16:28;;;;;;;3.95;3.15;;;25.80;67.10;;;;;;5029719;28;20252;-58
2021/07/31 00:18:54;;;;;;;3.13;2.92;;;25.70;67.00;;;;;;5028614;28;20227;-56
2021/07/31 00:21:21;;;;;;;3.58;3.28;;;25.80;67.10;;;;;;5030257;28;20234;-57
2021/07/31 00:23:47;;;;;;;3.35;3.05;;;25.70;67.00;;;;;;5023539;28;20202;-58
2021/07/31 00:26:14;;;;;;;3.33;3.03;;;25.80;67.00;;;;;;5029063;28;20308;-57
2021/07/31 00:28:40;;;;;;;3.38;3.08;;;25.80;67.00;;;;;;5028716;28;20778;-59
2021/07/31 00:31:07;;;;;;;3.40;3.10;;;25.80;67.00;;;;;;5028493;28;20637;-57
2021/07/31 00:33:33;;;;;;;3.53;3.22;;;25.70;66.90;;;;;;5027876;28;20210;-56
2021/07/31 00:36:00;;;;;;;3.58;3.28;;;25.80;67.00;;;;;;5029730;28;20206;-58
2021/07/31 00:38:26;;;;;;;3.13;2.92;;;25.70;66.90;;;;;;5032453;28;20305;-58
2021/07/31 00:40:52;;;;;;;3.13;2.85;;;25.70;66.90;;;;;;5031906;28;20297;-57
2021/07/31 00:43:19;;;;;;;3.33;3.13;;;25.70;66.90;;;;;;5027391;28;20702;-58
2021/07/31 00:45:45;;;;;;;3.58;3.28;;;25.70;66.80;;;;;;5032211;28;20238;-58
2021/07/31 00:48:12;;;;;;;3.30;3.10;;;25.70;66.90;;;;;;5032178;28;20237;-58
2021/07/31 00:50:38;;;;;;;2.90;2.70;;;25.70;66.90;;;;;;5032961;28;20199;-59
2021/07/31 00:53:05;;;;;;;3.35;3.05;;;25.80;67.00;;;;;;5031706;28;20654;-58
2021/07/31 00:55:31;;;;;;;3.90;2.90;;;25.70;66.90;;;;;;5031883;28;20693;-58
2021/07/31 00:57:58;;;;;;;2.97;2.67;;;25.80;67.00;;;;;;5031632;28;20222;-57
2021/07/31 01:00:24;;;;;;;3.25;2.95;;;25.70;66.90;;;;;;5032576;28;20294;-58
2021/07/31 01:02:51;;;;;;;3.50;3.20;;;25.70;66.90;;;;;;5032485;28;20316;-59
2021/07/31 01:05:17;;;;;;;3.70;3.40;;;25.70;66.90;;;;;;5033287;28;20626;-59
2021/07/31 01:07:43;;;;;;;3.38;3.08;;;25.70;66.90;;;;;;5030394;28;20294;-58
2021/07/31 01:10:10;;;;;;;3.10;2.90;;;25.70;66.80;;;;;;5032923;28;20210;-59
2021/07/31 01:12:36;;;;;;;3.20;2.90;;;25.70;66.80;;;;;;5032866;28;20298;-59
2021/07/31 01:15:03;;;;;;;2.72;2.53;;;25.70;66.70;;;;;;5031937;28;20301;-59
2021/07/31 01:17:29;;;;;;;3.50;3.20;;;25.70;66.80;;;;;;5031684;28;20226;-59
2021/07/31 01:19:56;;;;;;;3.20;2.90;;;25.70;66.80;;;;;;5031326;28;20317;-59
2021/07/31 01:22:22;;;;;;;3.35;3.05;;;25.70;66.80;;;;;;5032223;28;20227;-60
2021/07/31 01:24:49;;;;;;;3.10;2.90;;;25.70;66.80;;;;;;5031944;28;20205;-58
2021/07/31 01:27:15;;;;;;;3.58;3.28;;;25.70;66.80;;;;;;5032106;28;20198;-57
2021/07/31 01:29:42;;;;;;;3.13;2.92;;;25.70;66.80;;;;;;5031241;28;20226;-59
2021/07/31 01:32:08;;;;;;;3.20;3.00;;;25.70;66.80;;;;;;5032085;28;20631;-58
2021/07/31 01:34:34;;;;;;;3.15;2.88;;;25.70;66.80;;;;;;5031594;28;20224;-59
2021/07/31 01:37:01;;;;;;;3.83;3.53;;;25.70;66.80;;;;;;5029771;28;20289;-58
2021/07/31 01:39:27;;;;;;;2.90;2.70;;;25.70;66.80;;;;;;5030245;28;20221;-59
2021/07/31 01:41:54;;;;;;;3.15;2.85;;;25.70;66.80;;;;;;5030238;28;20285;-60
2021/07/31 01:44:20;;;;;;;3.38;3.08;;;25.70;66.80;;;;;;5031064;28;20330;-61
2021/07/31 01:46:47;;;;;;;3.00;2.70;;;25.70;66.80;;;;;;5030690;28;20200;-59
2021/07/31 01:49:13;;;;;;;2.97;2.70;;;25.70;66.90;;;;;;5031042;28;20229;-59
2021/07/31 01:51:40;;;;;;;2.80;2.60;;;25.70;66.90;;;;;;5031975;28;20654;-58
2021/07/31 01:54:06;;;;;;;3.17;2.92;;;25.70;66.90;;;;;;5030188;28;20491;-58
2021/07/31 01:56:32;;;;;;;3.30;3.00;;;25.70;66.90;;;;;;5030342;28;20293;-60
2021/07/31 01:59:00;;;;;;;3.20;3.00;;;25.70;66.90;;;;;;5030976;28;20725;-58
2021/07/31 02:01:27;;;;;;;3.10;2.90;;;25.70;66.90;;;;;;5032566;28;20210;-58
2021/07/31 02:03:53;;;;;;;3.47;3.17;;;25.70;67.00;;;;;;5022887;28;20234;-58
2021/07/31 02:06:20;;;;;;;3.10;2.80;;;25.70;66.90;;;;;;5028387;28;20290;-57
2021/07/31 02:08:46;;;;;;;3.00;2.80;;;25.70;66.90;;;;;;5030339;28;20229;-58
2021/07/31 02:11:13;;;;;;;3.30;3.00;;;25.70;66.90;;;;;;5031850;28;20658;-57
2021/07/31 02:13:40;;;;;;;2.90;2.60;;;25.70;67.00;;;;;;5030544;28;20746;-58
2021/07/31 02:16:06;;;;;;;3.05;2.85;;;25.70;66.90;;;;;;5029503;28;20234;-58
2021/07/31 02:18:33;;;;;;;3.20;3.00;;;25.70;67.00;;;;;;5031016;28;20314;-58
2021/07/31 02:20:59;;;;;;;3.28;2.80;;;25.70;67.00;;;;;;5030642;28;20289;-58
2021/07/31 02:23:26;;;;;;;3.00;2.80;;;25.70;67.00;;;;;;5031015;28;20227;-56
2021/07/31 02:25:52;;;;;;;3.00;2.80;;;25.70;67.00;;;;;;5029226;28;20289;-58
2021/07/31 02:28:19;;;;;;;3.15;2.85;;;25.70;67.00;;;;;;5031118;28;20632;-58
2021/07/31 02:30:45;;;;;;;3.25;2.95;;;25.70;67.00;;;;;;5029313;28;20313;-58
2021/07/31 02:33:11;;;;;;;3.05;2.80;;;25.70;67.20;;;;;;5022897;28;20322;-57
2021/07/31 02:35:38;;;;;;;2.97;2.78;;;25.70;67.10;;;;;;5026350;28;20207;-58
2021/07/31 02:38:05;;;;;;;2.88;2.67;;;25.70;67.10;;;;;;5030853;28;20302;-55
2021/07/31 02:40:31;;;;;;;3.10;2.80;;;25.70;67.00;;;;;;5028678;28;20211;-58
2021/07/31 02:42:58;;;;;;;2.97;2.78;;;25.70;67.10;;;;;;5030018;28;20314;-58
2021/07/31 02:45:24;;;;;;;3.05;2.85;;;25.70;67.00;;;;;;5030530;28;20302;-58
2021/07/31 02:47:51;;;;;;;3.00;2.80;;;25.70;67.00;;;;;;5030786;28;20269;-58
2021/07/31 02:50:18;;;;;;;3.28;2.97;;;25.70;67.10;;;;;;5030195;28;20567;-58
2021/07/31 02:52:44;;;;;;;3.13;2.83;;;25.70;67.00;;;;;;5029542;28;20286;-58
2021/07/31 02:55:10;;;;;;;2.70;2.50;;;25.70;67.10;;;;;;5029698;28;20199;-58
2021/07/31 02:57:37;;;;;;;2.83;2.63;;;25.60;67.00;;;;;;5028874;28;20214;-58
2021/07/31 03:00:03;;;;;;;3.17;2.90;;;25.70;67.00;;;;;;5029315;28;20203;-57
2021/07/31 03:02:30;;;;;;;2.72;2.53;;;25.70;67.00;;;;;;5030864;28;20309;-58
2021/07/31 03:04:56;;;;;;;2.85;2.65;;;25.60;67.00;;;;;;5030274;28;20722;-58
2021/07/31 03:07:23;;;;;;;2.80;2.60;;;25.70;67.00;;;;;;5029721;28;20545;-58
2021/07/31 03:09:49;;;;;;;2.80;2.60;;;25.70;67.00;;;;;;5029153;28;20285;-55
2021/07/31 03:12:17;;;;;;;2.85;2.65;;;25.70;67.00;;;;;;5028935;28;20293;-59
2021/07/31 03:14:44;;;;;;;3.50;3.20;;;25.70;67.00;;;;;;5030144;28;20260;-55
2021/07/31 03:17:10;;;;;;;2.80;2.60;;;25.60;67.00;;;;;;5028927;28;20297;-58
2021/07/31 03:19:37;;;;;;;3.10;2.90;;;25.70;67.00;;;;;;5023915;28;20321;-58
2021/07/31 03:22:03;;;;;;;2.90;2.70;;;25.70;67.00;;;;;;5028049;28;20206;-58
2021/07/31 03:24:30;;;;;;;2.67;2.47;;;25.70;67.10;;;;;;5030731;28;20602;-58
2021/07/31 03:26:56;;;;;;;2.60;2.40;;;25.70;67.00;;;;;;5029344;28;20256;-58
2021/07/31 03:29:23;;;;;;;2.63;2.42;;;25.60;67.00;;;;;;5029749;28;20218;-59
2021/07/31 03:31:49;;;;;;;3.00;2.80;;;25.60;67.00;;;;;;5029598;28;20305;-58
2021/07/31 03:34:16;;;;;;;3.00;2.65;;;25.70;67.10;;;;;;5023456;28;20309;-58
2021/07/31 03:36:42;;;;;;;2.53;2.33;;;25.60;67.00;;;;;;5028917;28;20206;-59
2021/07/31 03:39:09;;;;;;;2.85;2.65;;;25.60;67.00;;;;;;5030475;28;20293;-58
2021/07/31 03:41:35;;;;;;;3.90;2.38;;;25.70;67.10;;;;;;5028294;28;20211;-58
2021/07/31 03:44:02;;;;;;;2.65;2.45;;;25.60;67.00;;;;;;5029577;28;20957;-58
2021/07/31 03:46:28;;;;;;;2.70;2.50;;;25.70;67.10;;;;;;5029993;28;20198;-58
2021/07/31 03:48:55;;;;;;;2.63;2.42;;;25.70;67.10;;;;;;5029583;28;20269;-59
2021/07/31 03:51:21;;;;;;;3.05;2.80;;;25.60;67.10;;;;;;5028951;28;20293;-58
2021/07/31 03:53:48;;;;;;;2.75;2.53;;;25.60;67.10;;;;;;5030495;28;20285;-59
2021/07/31 03:56:14;;;;;;;2.90;2.70;;;25.60;67.00;;;;;;5028459;28;20278;-59
2021/07/31 03:58:41;;;;;;;3.10;2.67;;;25.70;67.00;;;;;;5030241;28;20214;-58
2021/07/31 04:01:07;;;;;;;2.83;2.63;;;25.70;67.00;;;;;;5027578;28;20285;-58
2021/07/31 04:03:34;;;;;;;3.20;2.90;;;25.70;67.00;;;;;;5028951;28;20664;-58
2021/07/31 04:06:01;;;;;;;3.28;2.97;;;25.60;67.00;;;;;;5028559;28;20282;-58
2021/07/31 04:08:27;;;;;;;2.75;2.55;;;25.70;67.10;;;;;;5029784;28;20226;-59
2021/07/31 04:10:53;;;;;;;2.72;2.53;;;25.70;67.00;;;;;;5032615;28;20242;-59
2021/07/31 04:13:20;;;;;;;2.85;2.65;;;25.60;67.00;;;;;;5033951;28;20289;-60
2021/07/31 04:15:46;;;;;;;2.72;2.50;;;25.60;67.00;;;;;;5032577;28;20306;-58
2021/07/31 04:18:13;;;;;;;2.72;2.53;;;25.60;67.00;;;;;;5033588;28;20871;-59
2021/07/31 04:20:39;;;;;;;2.70;2.50;;;25.60;66.90;;;;;;5033095;28;20220;-59
2021/07/31 04:23:06;;;;;;;2.80;2.60;;;25.60;67.00;;;;;;5033101;28;20256;-60
2021/07/31 04:25:32;;;;;;;2.80;2.60;;;25.60;67.00;;;;;;5032690;28;20203;-59
2021/07/31 04:27:59;;;;;;;2.53;2.33;;;25.60;66.90;;;;;;5032715;28;20215;-60
2021/07/31 04:30:27;;;;;;;2.83;2.63;;;25.60;66.90;;;;;;5033051;28;20301;-59
2021/07/31 04:32:54;;;;;;;2.47;2.28;;;25.70;66.90;;;;;;5028609;28;20319;-58
2021/07/31 04:35:20;;;;;;;2.55;2.35;;;25.70;67.00;;;;;;5033838;28;20289;-58
2021/07/31 04:37:47;;;;;;;2.70;2.50;;;25.60;66.90;;;;;;5032391;28;20433;-58
2021/07/31 04:40:13;;;;;;;2.72;2.53;;;25.70;66.90;;;;;;5032176;28;20325;-59
2021/07/31 04:42:39;;;;;;;2.85;2.65;;;25.60;66.90;;;;;;5030813;28;20296;-58
2021/07/31 04:45:06;;;;;;;2.80;2.60;;;25.60;66.90;;;;;;5032679;28;20776;-58
2021/07/31 04:47:32;;;;;;;2.75;2.55;;;25.70;66.90;;;;;;5032746;28;20310;-59
2021/07/31 04:49:59;;;;;;;2.88;2.60;;;25.70;66.90;;;;;;5032355;28;20199;-58
2021/07/31 04:52:25;;;;;;;2.95;2.75;;;25.70;66.90;;;;;;5032279;28;20210;-58
2021/07/31 04:54:52;;;;;;;2.50;2.30;;;25.70;66.80;;;;;;5032891;28;20293;-58
2021/07/31 04:57:18;;;;;;;2.95;2.50;;;25.70;66.80;;;;;;5031531;28;20785;-59
2021/07/31 04:59:45;;;;;;;11.00;3.55;;;25.60;66.80;;;;;;5033262;28;20881;-58
2021/07/31 05:02:11;;;;;;;2.50;2.30;;;25.70;66.90;;;;;;5031301;28;20326;-58
2021/07/31 05:04:38;;;;;;;2.63;2.10;;;25.60;66.90;;;;;;5023562;28;20264;-59
2021/07/31 05:07:04;;;;;;;2.90;2.42;;;25.70;66.90;;;;;;5032704;28;20222;-59
2021/07/31 05:09:30;;;;;;;2.22;2.13;;;25.60;66.80;;;;;;5031822;28;20651;-58
2021/07/31 05:11:57;;;;;;;2.60;2.40;;;25.70;66.90;;;;;;5032908;28;20285;-59
2021/07/31 05:14:24;;;;;;;2.70;2.50;;;25.70;67.20;;;;;;5031456;28;20206;-59
2021/07/31 05:16:50;;;;;;;2.80;2.60;;;25.60;66.80;;;;;;5032428;28;20238;-59
2021/07/31 05:19:17;;;;;;;2.55;2.35;;;25.70;66.90;;;;;;5028986;28;20297;-58
2021/07/31 05:21:43;;;;;;;2.53;2.33;;;25.60;66.80;;;;;;5019779;28;20209;-59
2021/07/31 05:24:10;;;;;;;2.90;2.70;;;25.70;66.90;;;;;;5031571;28;20236;-58
2021/07/31 05:26:37;;;;;;;2.30;2.10;;;25.60;66.80;;;;;;5031746;28;20389;-59
2021/07/31 05:29:03;;;;;;;2.83;2.60;;;25.70;66.80;;;;;;5031897;28;20730;-58
2021/07/31 05:31:30;;;;;;;3.03;2.30;;;25.70;66.80;;;;;;5032032;28;20314;-58
2021/07/31 05:33:56;;;;;;;2.50;2.30;;;25.60;66.80;;;;;;5030245;28;20286;-58
2021/07/31 05:36:23;;;;;;;2.50;2.30;;;25.70;66.90;;;;;;5032102;28;20202;-59
2021/07/31 05:38:49;;;;;;;2.75;2.53;;;25.70;66.80;;;;;;5030940;28;20298;-58
2021/07/31 05:41:16;;;;;;;2.83;2.63;;;25.70;66.80;;;;;;5032569;28;20198;-59
2021/07/31 05:43:42;;;;;;;2.55;2.35;;;25.70;66.80;;;;;;5030089;28;20226;-58
2021/07/31 05:46:09;;;;;;;2.33;2.13;;;25.70;66.80;;;;;;5031035;28;20661;-59
2021/07/31 05:48:35;;;;;;;2.30;2.10;;;25.70;66.80;;;;;;5031088;28;20317;-59
2021/07/31 05:51:02;;;;;;;2.63;2.30;;;25.70;66.80;;;;;;5032485;28;20296;-58
2021/07/31 05:53:28;;;;;;;2.67;2.47;;;25.70;66.80;;;;;;5028769;28;20199;-58
2021/07/31 05:55:55;;;;;;;2.40;2.20;;;25.70;66.80;;;;;;5031131;28;20297;-59
2021/07/31 05:58:21;;;;;;;2.88;2.67;;;25.70;66.80;;;;;;5027030;28;20226;-58
2021/07/31 06:00:48;;;;;;;2.38;2.17;;;25.70;66.90;;;;;;5030652;28;20285;-58
2021/07/31 06:03:14;;;;;;;2.65;2.45;;;25.70;66.80;;;;;;5030637;28;20234;-59
2021/07/31 06:05:41;;;;;;;2.42;2.22;;;25.70;66.80;;;;;;5030465;28;20643;-59
2021/07/31 06:08:07;;;;;;;2.88;2.67;;;25.70;66.80;;;;;;5029908;28;20317;-59
2021/07/31 06:10:33;;;;;;;2.60;2.40;;;25.70;66.80;;;;;;5031242;28;20293;-58
2021/07/31 06:13:00;;;;;;;2.50;2.30;;;25.70;66.80;;;;;;5030615;28;20615;-59
2021/07/31 06:15:27;;;;;;;2.70;2.40;;;25.70;66.70;;;;;;5031687;28;20202;-59
2021/07/31 06:17:53;;;;;;;2.30;2.08;;;25.70;66.70;;;;;;5030971;28;20249;-58
2021/07/31 06:20:20;;;;;;;2.35;2.15;;;25.70;66.60;;;;;;5031163;28;20630;-58
2021/07/31 06:22:46;;;;;;;2.60;2.40;;;25.70;66.60;;;;;;5030964;28;20210;-59
2021/07/31 06:25:13;;;;;;;2.70;2.50;;;25.70;67.40;;;;;;5025171;28;20325;-58
2021/07/31 06:27:39;;;;;;;2.20;2.10;;;25.70;66.60;;;;;;5028748;28;20302;-58
2021/07/31 06:30:06;;;;;;;2.50;2.30;;;25.70;66.70;;;;;;5030424;28;20204;-59
2021/07/31 06:32:32;;;;;;;2.60;2.40;;;25.70;66.60;;;;;;5030960;28;20564;-59
2021/07/31 06:34:59;;;;;;;2.75;2.55;;;25.70;66.60;;;;;;5030244;28;20289;-59
2021/07/31 06:37:25;;;;;;;2.75;2.55;;;25.70;66.60;;;;;;5029739;28;20317;-58
2021/07/31 06:39:51;;;;;;;2.70;2.50;;;25.70;66.50;;;;;;5029854;28;20206;-59
2021/07/31 06:42:18;;;;;;;2.42;2.22;;;25.70;66.60;;;;;;5015316;28;20203;-60
2021/07/31 06:44:44;;;;;;;2.38;2.17;;;25.70;66.50;;;;;;5021419;28;20759;-59
2021/07/31 06:47:11;;;;;;;2.60;2.40;;;25.70;66.50;;;;;;5029095;28;20313;-59
2021/07/31 06:49:37;;;;;;;3.10;2.10;;;25.70;66.50;;;;;;5028666;28;20229;-58
2021/07/31 06:52:04;;;;;;;2.45;2.25;;;25.70;66.50;;;;;;5029282;28;20282;-58
2021/07/31 06:54:30;;;;;;;2.40;2.20;;;25.70;66.40;;;;;;5030899;28;20300;-58
2021/07/31 06:56:57;;;;;;;2.55;2.35;;;25.70;66.40;;;;;;5029519;28;20295;-58
2021/07/31 06:59:23;;;;;;;2.33;2.13;;;25.70;66.40;;;;;;5029974;28;20237;-59
2021/07/31 07:01:50;;;;;;;2.50;2.30;;;25.70;66.40;;;;;;5029654;28;20281;-60
2021/07/31 07:04:17;;;;;;;2.40;2.17;;;25.70;66.40;;;;;;5029679;28;20230;-59
2021/07/31 07:06:43;;;;;;;2.20;2.10;;;25.70;66.40;;;;;;5029514;28;20242;-59
2021/07/31 07:09:10;;;;;;;2.33;2.13;;;25.70;66.40;;;;;;5028326;28;20281;-59
2021/07/31 07:11:37;;;;;;;2.42;2.20;;;25.70;66.40;;;;;;5031190;28;20233;-59
2021/07/31 07:14:03;;;;;;;2.55;2.35;;;25.70;66.50;;;;;;5029983;28;20261;-58
2021/07/31 07:16:30;;;;;;;4.03;2.30;;;25.70;66.60;;;;;;5012068;28;20707;-58
2021/07/31 07:18:56;;;;;;;2.85;2.65;;;25.80;66.60;;;;;;5020525;28;20198;-59
2021/07/31 07:21:23;;;;;;;3.85;2.47;;;25.30;66.00;;;;;;5027588;28;20203;-59
2021/07/31 07:23:49;;;;;;;6.85;2.97;;;25.50;67.00;;;;;;5027375;28;20948;-54
2021/07/31 07:26:16;;;;;;;4.50;2.90;;;25.60;66.00;;;;;;5029635;28;20293;-58
2021/07/31 07:28:42;;;;;;;4.35;3.05;;;25.70;66.20;;;;;;5029774;28;20215;-60
2021/07/31 07:31:09;;;;;;;3.88;3.08;;;25.70;67.00;;;;;;5031073;28;20210;-61
2021/07/31 07:33:35;;;;;;;7.95;3.30;;;25.80;67.20;;;;;;5022498;28;20309;-60
2021/07/31 07:36:01;;;;;;;6.68;3.17;;;25.80;67.20;;;;;;5038955;28;20201;-60
2021/07/31 07:38:28;;;;;;;7.60;3.88;;;25.70;66.90;;;;;;5014949;28;20199;-60
2021/07/31 07:40:54;;;;;;;4.45;2.83;;;25.80;67.50;;;;;;5025698;28;20292;-60
2021/07/31 07:43:21;;;;;;;10.63;3.10;;;25.80;67.80;;;;;;5030562;28;20202;-60
2021/07/31 07:45:47;;;;;;;7.43;3.60;;;25.80;67.40;;;;;;5032072;28;20214;-62
2021/07/31 07:48:14;;;;;;;6.30;3.38;;;25.80;67.90;;;;;;5034514;28;20305;-60
2021/07/31 07:50:40;;;;;;;7.82;4.32;;;25.80;67.90;;;;;;5031806;28;20325;-59
2021/07/31 07:53:07;;;;;;;3.95;3.53;;;25.60;66.90;;;;;;5023557;28;20202;-63
2021/07/31 07:55:33;;;;;;;4.20;3.42;;;25.10;65.50;;;;;;5038752;28;20206;-59
2021/07/31 07:58:00;;;;;;;4.18;3.28;;;24.90;65.60;;;;;;5041944;28;20218;-59
2021/07/31 08:00:26;;;;;;;3.58;3.28;;;24.90;66.00;;;;;;5043092;28;20736;-60
2021/07/31 08:02:53;;;;;;;4.20;3.80;;;24.90;65.10;;;;;;5043116;28;20552;-60
2021/07/31 08:05:19;;;;;;;4.43;3.85;;;24.70;64.30;;;;;;5026394;28;20316;-60
2021/07/31 08:07:45;;;;;;;3.95;3.50;;;24.20;65.00;;;;;;5032092;28;20222;-61
2021/07/31 08:10:12;;;;;;;5.18;3.45;;;24.00;66.00;;;;;;5034283;28;20293;-60
2021/07/31 08:12:38;;;;;;;4.47;3.20;;;24.00;68.00;;;;;;5033044;28;20217;-60
2021/07/31 08:15:05;;;;;;;3.85;3.45;;;24.20;70.00;;;;;;5032203;28;20711;-58
2021/07/31 08:17:31;;;;;;;3.28;2.97;;;24.20;71.40;;;;;;5031774;28;20593;-58
2021/07/31 08:19:58;;;;;;;3.97;3.25;;;24.30;74.10;;;;;;5030412;28;20393;-49
2021/07/31 08:22:24;;;;;;;6.63;3.03;;;24.40;74.50;;;;;;5025499;28;20220;-49
2021/07/31 08:24:51;;;;;;;3.35;3.03;;;24.60;76.20;;;;;;5034139;28;20316;-52
2021/07/31 08:27:17;;;;;;;3.90;3.47;;;24.60;74.50;;;;;;5028312;28;20246;-55
2021/07/31 08:29:44;;;;;;;3.55;3.25;;;24.30;73.80;;;;;;5037538;28;20307;-55
2021/07/31 08:32:10;;;;;;;3.92;3.35;;;24.40;74.30;;;;;;5031943;28;20214;-57
2021/07/31 08:34:36;;;;;;;3.80;3.47;;;24.40;74.50;;;;;;5047444;28;20285;-56
2021/07/31 08:37:03;;;;;;;11.40;4.78;;;24.30;77.90;;;;;;5028177;28;20222;-59
2021/07/31 08:39:29;;;;;;;4.90;3.30;;;24.30;77.80;;;;;;5026487;28;20214;-59
2021/07/31 08:41:56;;;;;;;3.30;2.90;;;24.30;76.10;;;;;;5040883;28;20256;-58
2021/07/31 08:44:22;;;;;;;4.22;2.95;;;24.20;75.20;;;;;;5033263;28;20234;-58
2021/07/31 08:46:50;;;;;;;3.00;2.70;;;24.30;75.10;;;;;;5043932;28;20218;-58
2021/07/31 08:49:16;;;;;;;3.45;2.88;;;24.30;73.80;;;;;;5024986;28;20399;-58
2021/07/31 08:51:43;;;;;;;3.83;2.72;;;24.40;74.30;;;;;;5032659;28;20206;-58
2021/07/31 08:54:09;;;;;;;4.20;3.10;;;24.40;74.00;;;;;;5027109;28;20202;-56
2021/07/31 08:56:36;;;;;;;3.35;3.05;;;24.60;74.20;;;;;;5032305;28;20254;-57
2021/07/31 08:59:02;;;;;;;3.25;3.03;;;24.60;73.80;;;;;;5026367;28;20208;-58
2021/07/31 09:01:28;;;;;;;3.05;2.85;;;24.60;72.70;;;;;;5031261;28;20209;-58
2021/07/31 09:03:56;;;;;;;5.10;2.63;;;24.60;72.80;;;;;;5035450;28;20682;-55
2021/07/31 09:06:22;;;;;;;4.03;2.53;;;24.70;73.00;;;;;;5020040;28;20231;-57
2021/07/31 09:08:49;;;;;;;3.58;2.80;;;24.80;73.10;;;;;;5028167;28;20202;-59
2021/07/31 09:11:15;;;;;;;2.78;2.47;;;25.00;74.10;;;;;;5033200;28;20805;-58
2021/07/31 09:13:42;;;;;;;3.15;2.67;;;25.10;74.90;;;;;;5033002;28;20282;-58
2021/07/31 09:16:08;;;;;;;4.80;2.80;;;25.20;76.20;;;;;;5032722;28;20309;-57
2021/07/31 09:18:34;;;;;;;3.17;2.60;;;25.20;75.20;;;;;;5033171;28;20222;-58
2021/07/31 09:21:01;;;;;;;5.43;2.88;;;25.20;74.60;;;;;;5033228;28;20654;-57
2021/07/31 09:23:27;;;;;;;5.53;3.08;;;25.20;74.50;;;;;;5033033;28;20301;-57
2021/07/31 09:25:54;;;;;;;2.92;2.72;;;25.30;74.50;;;;;;5032570;28;20238;-57
2021/07/31 09:28:21;;;;;;;3.03;2.83;;;25.30;74.40;;;;;;5033114;28;20294;-59
2021/07/31 09:30:47;;;;;;;4.80;3.05;;;25.40;74.60;;;;;;5032101;28;20202;-57
2021/07/31 09:33:14;;;;;;;2.78;2.42;;;25.40;74.60;;;;;;5032803;28;20234;-57
2021/07/31 09:35:40;;;;;;;2.95;2.67;;;25.40;74.90;;;;;;5022989;28;20237;-58
2021/07/31 09:38:07;;;;;;;2.75;2.50;;;25.40;74.80;;;;;;5031996;28;20238;-58
2021/07/31 09:40:34;;;;;;;3.15;2.85;;;25.40;74.60;;;;;;5031834;28;20855;-58
2021/07/31 09:43:00;;;;;;;3.55;2.53;;;25.40;74.70;;;;;;5031511;28;20289;-57
2021/07/31 09:45:27;;;;;;;3.63;2.95;;;25.40;74.40;;;;;;5032225;28;20604;-58
2021/07/31 09:47:53;;;;;;;3.08;2.78;;;25.40;74.40;;;;;;5032308;28;20296;-58
2021/07/31 09:50:19;;;;;;;2.80;2.60;;;25.40;74.20;;;;;;5032249;28;20209;-58
2021/07/31 09:52:46;;;;;;;2.90;2.70;;;25.40;74.00;;;;;;5032037;28;20286;-59
2021/07/31 09:55:12;;;;;;;3.83;2.70;;;25.40;74.00;;;;;;5032406;28;20210;-58
2021/07/31 09:57:39;;;;;;;3.25;2.92;;;25.40;74.00;;;;;;5032155;28;20682;-58
2021/07/31 10:00:05;;;;;;;5.75;2.60;;;25.40;74.00;;;;;;5031962;28;20582;-59
2021/07/31 10:02:32;;;;;;;4.00;2.80;;;25.50;73.70;;;;;;5032694;28;20283;-58
2021/07/31 10:04:59;;;;;;;3.88;3.58;;;25.40;73.80;;;;;;5032015;28;20241;-60
2021/07/31 10:07:26;;;;;;;2.88;2.47;;;25.40;73.70;;;;;;5031015;28;20325;-59
2021/07/31 10:09:53;;;;;;;3.13;2.60;;;25.40;73.80;;;;;;5032357;28;20260;-58
2021/07/31 10:12:22;;;;;;;3.13;2.83;;;25.40;73.80;;;;;;5031330;28;20229;-58
2021/07/31 10:14:49;;;;;;;3.70;3.00;;;25.40;74.00;;;;;;5040458;28;20214;-63
2021/07/31 10:17:15;;;;;;;2.90;2.70;;;25.40;74.20;;;;;;5009575;28;20219;-58
2021/07/31 10:19:42;;;;;;;3.03;2.75;;;25.40;74.40;;;;;;5023106;28;20205;-57
2021/07/31 10:22:09;;;;;;;2.70;2.50;;;25.40;74.40;;;;;;5029718;28;20292;-57
2021/07/31 10:24:35;;;;;;;5.40;2.83;;;25.50;74.30;;;;;;5039625;28;20312;-59
2021/07/31 10:27:01;;;;;;;2.92;2.53;;;25.50;73.90;;;;;;5038222;28;20308;-58
2021/07/31 10:29:28;;;;;;;2.85;2.55;;;25.50;74.30;;;;;;5031754;28;20310;-59
2021/07/31 10:31:54;;;;;;;3.17;2.88;;;25.50;74.30;;;;;;5030724;28;20730;-57
2021/07/31 10:34:21;;;;;;;3.13;2.83;;;25.50;74.40;;;;;;5030618;28;20579;-57
2021/07/31 10:36:47;;;;;;;3.65;2.70;;;25.60;74.70;;;;;;5044492;28;20320;-58
2021/07/31 10:39:14;;;;;;;3.05;2.75;;;25.50;74.50;;;;;;5036206;28;20202;-59
2021/07/31 10:41:40;;;;;;;2.80;2.50;;;25.60;75.60;;;;;;5027970;28;20290;-58
2021/07/31 10:44:07;;;;;;;3.08;2.88;;;25.60;75.20;;;;;;5030148;28;20296;-55
2021/07/31 10:46:33;;;;;;;3.85;2.90;;;25.60;75.10;;;;;;5042552;28;20222;-56
2021/07/31 10:49:01;;;;;;;3.20;2.90;;;25.60;75.10;;;;;;5031536;28;20276;-58
2021/07/31 10:51:27;;;;;;;4.72;3.13;;;25.70;75.30;;;;;;5028290;28;20605;-58
2021/07/31 10:53:54;;;;;;;2.67;2.47;;;25.60;75.50;;;;;;5029393;28;20226;-58
2021/07/31 10:56:20;;;;;;;3.10;2.80;;;25.70;75.60;;;;;;5027580;28;20313;-48
2021/07/31 10:58:47;;;;;;;3.17;2.88;;;25.70;75.60;;;;;;5030591;28;20206;-54
2021/07/31 11:01:13;;;;;;;6.05;2.95;;;25.70;76.10;;;;;;5026459;28;20308;-63
2021/07/31 11:03:39;;;;;;;2.75;2.25;;;25.70;76.50;;;;;;5031484;28;20293;-54
2021/07/31 11:06:06;;;;;;;3.22;2.80;;;25.80;75.60;;;;;;5029434;28;20324;-53
2021/07/31 11:08:33;;;;;;;3.47;2.30;;;25.70;74.90;;;;;;5027659;28;20195;-54
2021/07/31 11:11:00;;;;;;;3.85;2.40;;;25.70;75.10;;;;;;5030006;28;20209;-56
2021/07/31 11:13:26;;;;;;;2.92;2.72;;;25.70;73.70;;;;;;5027441;28;20643;-55
2021/07/31 11:15:53;;;;;;;2.30;2.13;;;25.70;73.70;;;;;;5033676;28;20222;-54
2021/07/31 11:18:19;;;;;;;6.82;2.70;;;25.70;73.80;;;;;;5029065;28;20586;-54
2021/07/31 11:20:46;;;;;;;2.78;2.58;;;25.70;73.60;;;;;;5027791;28;20282;-55
2021/07/31 11:23:12;;;;;;;3.65;2.58;;;25.70;73.70;;;;;;5024958;28;20342;-56
2021/07/31 11:25:38;;;;;;;3.95;2.88;;;25.70;74.50;;;;;;5027270;28;21681;-56
2021/07/31 11:28:08;;;;;;;2.60;2.30;;;25.70;73.00;;;;;;5030472;28;20281;-57
2021/07/31 11:30:34;;;;;;;2.90;2.60;;;25.70;72.60;;;;;;5029559;28;20212;-54
2021/07/31 11:33:01;;;;;;;3.08;2.70;;;25.70;73.80;;;;;;5025459;28;20289;-55
2021/07/31 11:35:28;;;;;;;3.08;2.78;;;25.70;72.70;;;;;;5030244;28;20261;-55
2021/07/31 11:37:54;;;;;;;3.78;2.72;;;25.70;73.30;;;;;;5030261;28;20293;-53
2021/07/31 11:40:21;;;;;;;4.30;3.60;;;25.70;72.60;;;;;;5029201;28;20297;-55
2021/07/31 11:42:47;;;;;;;3.35;3.05;;;25.70;72.60;;;;;;5028125;28;20198;-56
2021/07/31 11:45:14;;;;;;;4.50;3.10;;;25.60;72.50;;;;;;5030402;28;20625;-56
2021/07/31 11:47:41;;;;;;;3.75;3.13;;;25.60;72.20;;;;;;5028280;28;20290;-54
2021/07/31 11:50:07;;;;;;;4.40;2.97;;;25.60;70.60;;;;;;5021966;28;20207;-54
2021/07/31 11:52:34;;;;;;;3.33;2.95;;;25.60;70.10;;;;;;5029376;28;20203;-55
2021/07/31 11:55:01;;;;;;;3.30;2.83;;;25.60;70.00;;;;;;5030498;28;20305;-53
2021/07/31 11:57:27;;;;;;;3.30;2.50;;;25.60;70.00;;;;;;5030110;28;20206;-54
2021/07/31 11:59:54;;;;;;;3.67;3.15;;;25.60;69.90;;;;;;5030099;28;20237;-54
2021/07/31 12:02:20;;;;;;;2.90;2.70;;;25.60;70.20;;;;;;5029550;28;20209;-55
2021/07/31 12:04:47;;;;;;;4.38;3.00;;;25.60;69.50;;;;;;5026779;28;20230;-56
2021/07/31 12:07:14;;;;;;;4.10;2.58;;;25.60;69.80;;;;;;5020360;28;20206;-55
2021/07/31 12:09:41;;;;;;;3.33;3.03;;;25.60;69.00;;;;;;5030204;28;20278;-53
2021/07/31 12:12:07;;;;;;;3.08;2.80;;;25.60;70.30;;;;;;5042315;28;20195;-53
2021/07/31 12:14:34;;;;;;;3.38;2.42;;;25.60;69.70;;;;;;5028694;28;20535;-56
2021/07/31 12:17:00;;;;;;;3.17;2.88;;;25.60;69.20;;;;;;5026440;28;20248;-57
2021/07/31 12:19:27;;;;;;;3.40;2.92;;;25.60;68.30;;;;;;5027467;28;20226;-56
2021/07/31 12:21:54;;;;;;;2.72;2.53;;;25.60;68.80;;;;;;5028381;28;20289;-54
2021/07/31 12:24:20;;;;;;;3.88;2.70;;;25.50;67.70;;;;;;5029883;28;20244;-56
2021/07/31 12:26:46;;;;;;;3.00;2.40;;;25.60;67.60;;;;;;5029356;28;20293;-59
2021/07/31 12:29:13;;;;;;;2.63;2.42;;;25.60;67.80;;;;;;5027643;28;20735;-59
2021/07/31 12:31:39;;;;;;;3.10;2.50;;;25.60;67.50;;;;;;5032516;28;20301;-56
2021/07/31 12:34:06;;;;;;;3.00;2.70;;;25.60;68.00;;;;;;5027218;28;20312;-54
2021/07/31 12:36:32;;;;;;;2.65;2.45;;;25.60;67.80;;;;;;5032193;28;20250;-52
2021/07/31 12:38:59;;;;;;;2.90;2.70;;;25.60;68.60;;;;;;5043130;28;20285;-55
2021/07/31 12:41:25;;;;;;;3.42;2.63;;;25.60;68.10;;;;;;5032980;28;20290;-55